Používaním stránok prevádzkovaných PROFIPILOT, s.r.o. súhlasíte s používaním cookies, ktoré nám pomáhajú zabezpečiť lepšie služby.OK

Briefing

MAPA | METAR | TAF | METEO SITUÁCIA
MAPA | METAR | TAF | METEO SITUÁCIA

Predpoveď na dnes

Zamračené nízkou oblačnosťou a hmlisto, na horách a miestami aj v nižších polohách polojasno až oblačno. Ojedinele mrholenie alebo slabé sneženie. Ojedinele poľadovica. Najvyššia denná teplota -2 až 3, pri zmenšenej oblačnosti okolo 5 st. Teplota na horách vo výške 1500 m okolo +7 st. Slabý, na severe a východe miestami prevažne južný vietor 3 až 9 m/s (10 až 30 km/h). Na hrebeňoch hôr popoludní búrlivý vietor až víchrica. Predpokladané množstvo zrážok: do 1 mm / do 1 cm snehu

SHMÚ, OMPaV, PV 8.12.2016 04:55 SEČ

MAPA | METAR | TAF | METEO SITUÁCIA

TAF - Letisková predpoveď

08.12.2016 - 05:00 UTC

TAF LZSL 080500Z 0806/0815 VRB02KT 7000 SCT020 BKN090
     TEMPO 0806/0809 4500 BR
     PROB30 TEMPO 0806/0808 0800 -FZDZ FZFG BKN003
     BECMG 0808/0810 16006KT=
 TAF LZPP 080500Z 0806/0815 16008KT 5000 BR BKN010
     TEMPO 0806/0809 2000 -FZDZ BR SCT002 OVC003
     BECMG 0811/0813 7000 SCT012=
 TAF LZZI 080500Z 0806/0815 VRB02KT 3500 BR BKN040
     TEMPO 0806/0807 2500 -FZRA BKN025 OVC040
     BECMG 0807/0809 24012KT 6000 SCT010 BKN080
     BECMG 0811/0813 9999 FEW060 SCT100=
 

08.12.2016 - 05:00 UTC

TAF LZIB 080500Z 0806/0906 08006KT 1600 BR OVC002
     TEMPO 0806/0808 0300 -FZDZ FZFG OVC001
     BECMG 0809/0811 13005KT 2500 BR SCT002 BKN004
     TEMPO 0811/0815 6000 SCT005
     BECMG 0821/0823 28006KT CAVOK
     BECMG 0903/0905 30010KT=
 TAF LZKZ 080500Z 0806/0906 19014KT 1200 BR SCT001 BKN002
     TEMPO 0806/0810 0600 FZFG OVC001
     PROB40 TEMPO 0806/0808 0150 -FZDZ FZFG
     BECMG 0814/0816 19006KT 2500 BR SCT025 BKN090
     TEMPO 0818/0900 23004KT 7000
     BECMG 0902/0904 BKN008=
 TAF LZTT 080500Z 0806/0906 23018KT 9999 SCT060 BKN100
     TEMPO 0806/0906 25018G28KT
     PROB40 TEMPO 0806/0808 24008KT -FZRA BKN030 OVC070=
 

08.12.2016 - 02:00 UTC

TAF AMD LZZI 080347Z 0803/0812 VRB02KT 3500 BR SCT030 BKN050
     TEMPO 0803/0806 2500 -FZRA BKN025 OVC055
     BECMG 0807/0809 24006KT 5000 BR SCT004 BKN080=
 

08.12.2016 - 02:00 UTC

TAF LZSL 080200Z 0803/0812 VRB02KT 8000 BKN020
     TEMPO 0803/0808 4500 BR
     PROB30 TEMPO 0805/0808 0800 FZFG BKN003
     BECMG 0808/0810 16006KT FEW030=
 TAF LZZI 080200Z 0803/0812 VRB02KT 2500 BR NSC
     BECMG 0807/0809 24006KT 5000 BR SCT004 BKN080=
 
MAPA | METAR | TAF | METEO SITUÁCIA

METAR - Letisková meteo správa

Letisková meteorologická správa METAR

Meteorologické informácie z ďalších profesionálnych meteorologických staníc SHMÚ zobrazené v tvare zodpovedajúcom pravidlám kódovania správ METAR sú uvedené v položke „METSYN Informácie o správe METAR

08.12.2016 - 07:30 UTC

METAR LZIB 080730Z 06005KT 0100 R31/0400N R22/0300N FZFG OVC002
 M02/M02 Q1037 NOSIG=
 METAR LZKZ 080730Z 19013KT 1500 -PL BR OVC002 M03/M04 Q1035 NOSIG=
 METAR LZPP 080730Z 16004KT 3000 BR OVC006 M02/M03 Q1037=
 METAR LZSL 080730Z 00000KT 6000 OVC041 M02/M04 Q1036=
 METAR LZTT 080730Z 23020KT 9999 SCT030 SCT053 00/M05 Q1030 NOSIG=
 METAR LZZI 080730Z 30002KT 3000 BR BKN046 M02/M03 Q1035=
 

08.12.2016 - 07:00 UTC

METAR LZIB 080700Z 07005KT 0200 R31/0400N R22/0350N FZFG OVC002
 M02/M02 Q1037 NOSIG=
 METAR LZKZ 080700Z 20012KT 1500 -SG BR OVC002 M03/M04 Q1036 NOSIG=
 METAR LZPP 080700Z 18004KT 4000 BR OVC006 M02/M03 Q1037=
 METAR LZSL 080700Z 00000KT 6000 OVC041 M03/M04 Q1036=
 METAR LZTT 080700Z 24020KT 9999 FEW023 BKN036 BKN090 M01/M04 Q1030
 NOSIG=
 METAR LZZI 080700Z 24002KT 3000 BR FEW003 OVC046 M02/M03 Q1035=
 

08.12.2016 - 07:00 UTC

METAR LZMC 080700Z 00000KT 2500 BR FEW003 BKN060 OVC090
 M02/M03 Q1036=
 METAR LZPW 080700Z 17016KT 4000 -FZDZ OVC006 M03/M04
 Q1034=
 
načítavam...